Time;durP1;ratioP1;P1;durP2;ratioP2;P2;SDS_P1;SDS_P2;PMS_P1;PMS_P2;Temp;Humidity;BMP_temperature;BMP_pressure;BME280_temperature;BME280_humidity;BME280_pressure;Samples;Min_cycle;Max_cycle;Signal;HPM_P1;HPM_P2
2023/04/08 00:01:27;;;;;;;2.53;1.77;;;11.90;51.10;;;;;;5984652;29;20035;-68
2023/04/08 00:04:28;;;;;;;3.67;1.60;;;11.90;51.20;;;;;;5984563;29;20115;-68
2023/04/08 00:07:29;;;;;;;1.95;1.45;;;11.90;51.20;;;;;;6013279;29;20041;-68
2023/04/08 00:10:30;;;;;;;3.78;2.05;;;11.90;51.20;;;;;;5986359;29;20039;-68
2023/04/08 00:13:31;;;;;;;3.40;1.58;;;11.90;51.40;;;;;;6036177;29;20057;-68
2023/04/08 00:16:32;;;;;;;3.40;1.85;;;11.90;51.40;;;;;;6006796;29;20501;-68
2023/04/08 00:19:35;;;;;;;2.58;1.48;;;11.90;52.10;;;;;;5991903;29;20041;-69
2023/04/08 00:22:36;;;;;;;18.17;1.80;;;11.80;51.70;;;;;;5984603;29;20093;-69
2023/04/08 00:25:37;;;;;;;6.43;1.48;;;11.80;51.70;;;;;;5984467;29;20084;-69
2023/04/08 00:28:38;;;;;;;8.00;1.50;;;11.70;51.80;;;;;;5984003;29;20468;-68
2023/04/08 00:31:39;;;;;;;3.58;1.30;;;11.60;51.80;;;;;;6013283;29;20074;-69
2023/04/08 00:34:40;;;;;;;8.10;1.30;;;11.60;52.00;;;;;;5982195;29;20080;-69
2023/04/08 00:37:41;;;;;;;5.45;1.58;;;11.50;52.10;;;;;;5986945;29;20029;-69
2023/04/08 00:40:42;;;;;;;1.85;1.20;;;11.50;52.20;;;;;;6035794;29;20061;-70
2023/04/08 00:43:42;;;;;;;1.75;1.30;;;11.40;52.20;;;;;;6006524;29;20021;-70
2023/04/08 00:46:44;;;;;;;2.65;1.67;;;11.40;52.40;;;;;;5959885;29;20035;-70
2023/04/08 00:49:44;;;;;;;2.88;1.73;;;11.30;52.60;;;;;;5959396;29;20099;-68
2023/04/08 00:52:45;;;;;;;3.45;1.30;;;11.30;52.80;;;;;;5961124;29;20480;-70
2023/04/08 00:55:46;;;;;;;4.25;1.63;;;11.30;52.90;;;;;;5990620;29;20039;-68
2023/04/08 00:58:47;;;;;;;2.67;1.50;;;11.20;53.00;;;;;;5989491;29;20469;-69
2023/04/08 01:02:24;;;;;;;1.85;1.00;;;11.20;53.10;;;;;;5974395;29;20031;-67
2023/04/08 01:05:55;;;;;;;8.38;1.70;;;11.10;53.10;;;;;;5981031;29;20518;-69
2023/04/08 01:08:59;;;;;;;1.85;1.15;;;11.10;53.20;;;;;;6012266;29;20030;-71
2023/04/08 01:12:04;;;;;;;3.95;1.60;;;11.00;53.20;;;;;;5984434;29;20041;-69
2023/04/08 01:15:07;;;;;;;6.40;1.67;;;11.10;53.20;;;;;;6012911;29;20042;-69
2023/04/08 01:18:11;;;;;;;5.32;2.08;;;11.10;53.10;;;;;;5997747;29;20046;-69
2023/04/08 01:21:13;;;;;;;4.18;1.70;;;11.10;53.10;;;;;;6012247;29;20046;-69
2023/04/08 01:24:24;;;;;;;3.83;1.90;;;11.20;53.00;;;;;;5983465;29;20030;-70
2023/04/08 01:27:27;;;;;;;4.15;1.58;;;11.20;53.10;;;;;;5981671;29;20034;-70
2023/04/08 01:30:29;;;;;;;3.95;1.60;;;11.20;53.20;;;;;;5981197;29;20436;-68
2023/04/08 01:33:32;;;;;;;4.10;1.50;;;11.10;53.40;;;;;;5983061;29;20118;-69
2023/04/08 01:36:36;;;;;;;3.50;1.55;;;11.10;53.50;;;;;;5982485;29;20109;-69
2023/04/08 01:39:39;;;;;;;5.03;1.77;;;11.00;53.60;;;;;;6001671;29;20033;-70
2023/04/08 01:42:42;;;;;;;2.13;1.30;;;11.00;53.70;;;;;;5988804;29;20037;-70
2023/04/08 01:45:47;;;;;;;3.33;1.38;;;10.90;53.70;;;;;;5980537;29;20038;-68
2023/04/08 01:48:49;;;;;;;5.13;1.30;;;10.90;53.70;;;;;;5973272;29;20544;-68
2023/04/08 01:51:52;;;;;;;2.22;1.50;;;10.80;53.70;;;;;;5959867;29;20165;-69
2023/04/08 01:54:53;;;;;;;1.83;1.20;;;10.80;53.80;;;;;;5973430;29;20031;-68
2023/04/08 01:57:57;;;;;;;3.10;1.35;;;10.80;53.90;;;;;;5978619;29;20325;-69
2023/04/08 02:00:59;;;;;;;2.80;1.30;;;10.80;54.00;;;;;;6011470;29;20179;-70
2023/04/08 02:04:02;;;;;;;5.88;1.35;;;10.80;54.10;;;;;;5996047;29;20045;-69
2023/04/08 02:07:04;;;;;;;2.65;1.33;;;10.80;54.10;;;;;;6011210;29;20037;-69
2023/04/08 02:10:06;;;;;;;6.78;2.15;;;10.70;54.20;;;;;;6011271;29;20094;-69
2023/04/08 02:13:07;;;;;;;7.82;2.10;;;10.70;54.30;;;;;;6003893;29;20066;-69
2023/04/08 02:16:28;;;;;;;1.88;1.15;;;10.70;54.40;;;;;;6033661;29;20057;-69
2023/04/08 02:19:35;;;;;;;6.55;1.60;;;10.70;54.50;;;;;;6002778;29;20069;-69
2023/04/08 02:22:58;;;;;;;3.92;2.33;;;10.80;54.60;;;;;;6004063;29;20551;-70
2023/04/08 02:26:01;;;;;;;10.95;3.03;;;10.80;54.80;;;;;;5984084;29;20026;-69
2023/04/08 02:29:04;;;;;;;6.15;2.60;;;10.80;54.80;;;;;;5982389;29;20114;-69
2023/04/08 02:32:07;;;;;;;6.85;3.22;;;10.70;54.90;;;;;;6010931;29;20064;-68
2023/04/08 02:35:11;;;;;;;6.35;2.58;;;10.80;55.10;;;;;;6010848;29;20030;-70
2023/04/08 02:38:12;;;;;;;8.18;2.92;;;10.70;55.10;;;;;;5973918;29;20034;-69
2023/04/08 02:41:13;;;;;;;3.70;2.25;;;10.80;55.10;;;;;;6003015;29;20671;-69
2023/04/08 02:44:14;;;;;;;4.28;2.25;;;10.70;55.10;;;;;;6035048;29;20138;-69
2023/04/08 02:47:15;;;;;;;10.48;2.75;;;10.80;55.10;;;;;;6018538;29;20030;-69
2023/04/08 02:50:16;;;;;;;3.95;1.90;;;10.80;55.10;;;;;;6018517;29;20094;-69
2023/04/08 02:53:17;;;;;;;4.50;1.45;;;10.70;55.10;;;;;;5988376;29;20060;-67
2023/04/08 02:56:18;;;;;;;4.00;1.70;;;10.70;55.00;;;;;;5987948;29;20058;-68
2023/04/08 02:59:19;;;;;;;6.43;2.22;;;10.70;55.00;;;;;;5989760;29;20122;-69
2023/04/08 03:02:19;;;;;;;7.38;2.67;;;10.60;55.00;;;;;;6018592;29;20040;-68
2023/04/08 03:05:20;;;;;;;8.02;2.25;;;10.60;55.10;;;;;;5988973;29;20061;-68
2023/04/08 03:08:21;;;;;;;5.97;3.00;;;10.60;55.20;;;;;;5988891;29;20117;-68
2023/04/08 03:11:22;;;;;;;5.88;2.42;;;10.60;55.20;;;;;;5997105;29;20037;-68
2023/04/08 03:14:23;;;;;;;6.53;2.83;;;10.60;55.20;;;;;;6011607;29;20086;-70
2023/04/08 03:17:24;;;;;;;7.22;3.33;;;10.60;55.20;;;;;;6011301;29;20022;-70
2023/04/08 03:20:25;;;;;;;6.97;2.95;;;10.70;55.30;;;;;;6011724;29;20026;-68
2023/04/08 03:23:26;;;;;;;7.75;3.50;;;10.60;55.30;;;;;;6008791;29;20058;-69
2023/04/08 03:26:26;;;;;;;6.90;3.10;;;10.70;55.40;;;;;;5988848;29;20093;-70
2023/04/08 03:29:27;;;;;;;6.85;2.80;;;10.70;55.40;;;;;;5988149;29;20043;-69
2023/04/08 03:32:28;;;;;;;5.28;2.83;;;10.70;55.40;;;;;;5988821;29;20057;-69
2023/04/08 03:35:29;;;;;;;8.23;3.42;;;10.70;55.40;;;;;;5988431;29;20539;-69
2023/04/08 03:38:30;;;;;;;12.63;3.38;;;10.70;55.40;;;;;;5999317;29;20205;-69
2023/04/08 03:41:31;;;;;;;7.93;3.63;;;10.70;55.50;;;;;;6009920;29;20064;-69
2023/04/08 03:44:31;;;;;;;12.13;3.55;;;10.60;55.50;;;;;;6005358;29;20061;-69
2023/04/08 03:47:33;;;;;;;9.73;3.88;;;10.60;55.50;;;;;;5988034;29;20038;-70
2023/04/08 03:50:33;;;;;;;7.45;4.03;;;10.50;55.50;;;;;;5988214;29;20030;-69
2023/04/08 03:53:34;;;;;;;9.15;3.75;;;10.50;55.70;;;;;;6017280;29;20116;-69
2023/04/08 03:56:35;;;;;;;12.98;4.07;;;10.40;55.70;;;;;;6014286;29;20144;-68
2023/04/08 03:59:36;;;;;;;9.25;4.45;;;10.40;55.80;;;;;;5984910;29;20026;-68
2023/04/08 04:02:37;;;;;;;10.52;4.93;;;10.30;55.80;;;;;;5984704;29;20026;-72
2023/04/08 04:05:38;;;;;;;8.82;4.50;;;10.30;55.80;;;;;;6013820;29;20045;-69
2023/04/08 04:08:39;;;;;;;24.83;4.45;;;10.30;56.00;;;;;;5984604;29;20046;-69
2023/04/08 04:11:40;;;;;;;8.38;4.25;;;10.30;56.10;;;;;;5995745;29;20034;-69
2023/04/08 04:14:41;;;;;;;17.67;4.82;;;10.20;56.10;;;;;;6010869;29;20034;-69
2023/04/08 04:17:41;;;;;;;7.70;4.45;;;10.20;56.20;;;;;;6008863;29;20030;-69
2023/04/08 04:20:42;;;;;;;8.45;4.03;;;10.20;56.30;;;;;;6008157;29;20041;-69
2023/04/08 04:23:43;;;;;;;10.98;3.67;;;10.10;56.40;;;;;;6002981;29;20110;-69
2023/04/08 04:26:44;;;;;;;13.20;3.85;;;10.10;56.40;;;;;;5982974;29;20032;-70
2023/04/08 04:29:45;;;;;;;11.48;4.65;;;10.00;56.50;;;;;;5983959;29;20030;-69
2023/04/08 04:32:46;;;;;;;9.52;4.72;;;10.00;56.70;;;;;;5983950;29;20098;-70
2023/04/08 04:35:46;;;;;;;8.50;4.38;;;9.90;56.90;;;;;;5982334;29;20026;-69
2023/04/08 04:38:49;;;;;;;11.38;4.35;;;9.90;56.90;;;;;;5996757;29;20041;-69
2023/04/08 04:41:50;;;;;;;8.95;3.88;;;9.90;57.00;;;;;;6006702;29;20065;-69
2023/04/08 04:44:51;;;;;;;9.38;4.00;;;9.80;57.10;;;;;;5994143;29;20054;-68
2023/04/08 04:47:52;;;;;;;9.27;3.83;;;9.80;57.20;;;;;;5983392;29;20061;-68
2023/04/08 04:50:57;;;;;;;10.95;4.13;;;9.80;57.30;;;;;;5983651;29;20034;-70
2023/04/08 04:53:58;;;;;;;14.57;4.57;;;9.80;57.30;;;;;;5983132;29;20450;-67
2023/04/08 04:56:59;;;;;;;6.50;3.30;;;9.80;57.30;;;;;;5983432;29;20077;-69
2023/04/08 05:00:00;;;;;;;14.13;4.32;;;9.70;57.30;;;;;;5983136;29;20063;-69
2023/04/08 05:03:01;;;;;;;10.13;3.28;;;9.70;57.30;;;;;;5983669;29;20457;-69
2023/04/08 05:06:02;;;;;;;11.13;4.20;;;9.70;57.30;;;;;;5983113;29;20035;-68
2023/04/08 05:09:03;;;;;;;8.02;3.85;;;9.70;57.30;;;;;;5983398;29;20091;-69
2023/04/08 05:12:04;;;;;;;7.80;4.10;;;9.70;57.40;;;;;;5995666;29;20140;-69
2023/04/08 05:15:06;;;;;;;8.80;3.97;;;9.70;57.40;;;;;;6005988;29;20029;-69
2023/04/08 05:18:07;;;;;;;7.75;3.42;;;9.70;57.40;;;;;;6005455;29;20392;-70
2023/04/08 05:21:08;;;;;;;8.63;3.53;;;9.70;57.50;;;;;;6005470;29;20088;-69
2023/04/08 05:24:08;;;;;;;8.65;3.20;;;9.70;57.50;;;;;;5997472;29;20071;-70
2023/04/08 05:27:09;;;;;;;8.90;4.47;;;9.70;57.60;;;;;;5982984;29;20456;-68
2023/04/08 05:30:11;;;;;;;8.15;3.78;;;9.70;57.50;;;;;;5984133;29;20042;-68
2023/04/08 05:33:11;;;;;;;5.88;3.00;;;9.70;57.50;;;;;;6011580;29;20041;-70
2023/04/08 05:36:13;;;;;;;5.45;3.17;;;9.80;57.60;;;;;;5982409;29;20113;-69
2023/04/08 05:39:14;;;;;;;8.77;3.05;;;9.70;57.50;;;;;;5998652;29;20507;-68
2023/04/08 05:42:15;;;;;;;4.53;2.58;;;9.80;57.60;;;;;;5990969;29;20362;-70
2023/04/08 05:45:16;;;;;;;5.75;2.35;;;9.80;57.60;;;;;;6009062;29;20042;-69
2023/04/08 05:48:16;;;;;;;5.75;3.63;;;9.80;57.60;;;;;;5981852;29;20038;-69
2023/04/08 05:51:17;;;;;;;10.75;2.92;;;9.80;57.50;;;;;;5982146;29;20061;-68
2023/04/08 05:54:18;;;;;;;9.65;3.53;;;9.80;57.60;;;;;;5981925;29;20137;-68
2023/04/08 05:57:19;;;;;;;6.25;3.05;;;9.80;57.60;;;;;;6011147;29;20070;-70
2023/04/08 06:00:21;;;;;;;5.03;3.10;;;9.80;57.60;;;;;;5981936;29;20106;-69
2023/04/08 06:03:22;;;;;;;8.52;3.58;;;9.90;57.60;;;;;;5980882;29;20049;-69
2023/04/08 06:06:24;;;;;;;10.73;4.00;;;9.90;57.50;;;;;;5981844;29;20142;-69
2023/04/08 06:09:25;;;;;;;6.20;2.88;;;9.90;57.50;;;;;;5981999;29;20026;-68
2023/04/08 06:12:26;;;;;;;5.55;3.50;;;9.90;57.40;;;;;;5998121;29;20042;-69
2023/04/08 06:15:27;;;;;;;5.95;3.25;;;9.90;57.40;;;;;;6004270;29;20037;-69
2023/04/08 06:18:28;;;;;;;6.80;3.33;;;10.00;57.50;;;;;;6002989;29;20032;-69
2023/04/08 06:21:29;;;;;;;16.55;3.13;;;10.00;57.50;;;;;;6004012;29;20030;-69
2023/04/08 06:24:29;;;;;;;4.85;2.78;;;10.10;57.60;;;;;;5993681;29;20026;-71
2023/04/08 06:27:30;;;;;;;8.25;3.00;;;10.10;57.40;;;;;;6010292;29;20092;-69
2023/04/08 06:30:31;;;;;;;9.90;4.18;;;10.10;57.40;;;;;;5981720;29;20391;-70
2023/04/08 06:33:32;;;;;;;4.28;2.38;;;10.20;57.50;;;;;;6010748;29;20492;-70
2023/04/08 06:36:33;;;;;;;3.53;2.10;;;10.30;57.40;;;;;;6010428;29;20121;-68
2023/04/08 06:39:34;;;;;;;6.82;2.40;;;10.30;57.30;;;;;;6000125;29;20495;-69
2023/04/08 06:42:37;;;;;;;3.53;2.20;;;10.40;57.20;;;;;;5986563;29;20049;-68
2023/04/08 06:45:53;;;;;;;4.82;2.65;;;10.50;57.20;;;;;;6009907;29;20038;-70
2023/04/08 06:48:54;;;;;;;7.85;2.50;;;10.60;57.10;;;;;;5981056;29;20034;-70
2023/04/08 06:51:55;;;;;;;4.88;2.80;;;10.70;57.00;;;;;;6010364;29;20110;-69
2023/04/08 06:54:56;;;;;;;5.68;2.58;;;10.70;56.70;;;;;;6010629;29;20113;-68
2023/04/08 06:57:57;;;;;;;6.13;2.42;;;10.80;56.70;;;;;;6010720;29;20487;-69
2023/04/08 07:01:02;;;;;;;4.10;2.28;;;10.80;56.50;;;;;;5982105;29;20049;-68
2023/04/08 07:04:02;;;;;;;5.30;2.45;;;10.90;56.30;;;;;;5981361;29;20508;-69
2023/04/08 07:07:03;;;;;;;9.00;2.83;;;11.00;56.30;;;;;;5981095;29;20030;-68
2023/04/08 07:10:05;;;;;;;5.00;2.45;;;11.10;56.20;;;;;;5995260;29;20491;-69
2023/04/08 07:13:05;;;;;;;5.25;2.85;;;11.20;56.00;;;;;;6004155;29;20068;-69
2023/04/08 07:16:07;;;;;;;8.98;3.50;;;11.30;55.80;;;;;;6005503;29;20488;-70
2023/04/08 07:19:07;;;;;;;9.07;3.08;;;11.30;55.70;;;;;;6005333;29;20026;-69
2023/04/08 07:22:08;;;;;;;9.82;3.40;;;11.40;55.50;;;;;;6033709;29;20041;-68
2023/04/08 07:25:09;;;;;;;5.78;2.83;;;11.50;55.50;;;;;;5989116;29;20074;-71
2023/04/08 07:28:10;;;;;;;4.88;3.05;;;11.70;55.30;;;;;;5979985;29;20034;-68
2023/04/08 07:31:16;;;;;;;6.30;3.33;;;11.80;55.10;;;;;;5984792;29;20593;-69
2023/04/08 07:34:16;;;;;;;7.55;3.65;;;11.90;54.90;;;;;;5984696;29;20037;-69
2023/04/08 07:37:18;;;;;;;6.65;3.08;;;12.00;54.70;;;;;;5986085;29;20484;-68
2023/04/08 07:40:18;;;;;;;8.63;3.03;;;12.10;54.40;;;;;;6007439;29;20030;-69
2023/04/08 07:43:19;;;;;;;8.45;3.35;;;12.20;54.10;;;;;;6006467;29;20057;-69
2023/04/08 07:46:20;;;;;;;6.10;3.42;;;12.30;53.90;;;;;;5987125;29;20425;-69
2023/04/08 07:49:21;;;;;;;5.68;2.55;;;12.30;53.90;;;;;;5984024;29;20109;-68
2023/04/08 07:52:22;;;;;;;7.82;2.92;;;12.40;53.70;;;;;;5984665;29;20034;-68
2023/04/08 07:55:23;;;;;;;8.20;2.95;;;12.50;53.40;;;;;;6013584;29;20073;-69
2023/04/08 07:58:24;;;;;;;6.57;2.90;;;12.70;53.10;;;;;;5984292;29;20099;-70
2023/04/08 08:01:26;;;;;;;5.28;2.72;;;12.80;52.90;;;;;;6013535;29;20086;-69
2023/04/08 08:04:27;;;;;;;5.03;3.13;;;13.00;52.70;;;;;;5984276;29;20062;-70
2023/04/08 08:07:28;;;;;;;10.20;3.17;;;13.10;52.40;;;;;;5984299;29;20042;-71
2023/04/08 08:10:29;;;;;;;7.20;3.05;;;13.30;52.00;;;;;;5984682;29;20091;-70
2023/04/08 08:13:30;;;;;;;8.52;4.07;;;13.30;51.20;;;;;;6036613;29;20202;-69
2023/04/08 08:16:32;;;;;;;5.47;3.22;;;13.40;51.10;;;;;;6005395;29;20106;-69
2023/04/08 08:19:33;;;;;;;6.00;2.92;;;13.50;51.10;;;;;;6006813;29;20033;-74
2023/04/08 08:22:34;;;;;;;4.13;2.90;;;13.60;51.00;;;;;;6036350;29;20026;-67
2023/04/08 08:25:34;;;;;;;8.02;3.10;;;13.80;50.70;;;;;;6017539;29;20042;-68
2023/04/08 08:28:36;;;;;;;5.30;2.55;;;13.90;50.20;;;;;;5984154;29;20034;-70
2023/04/08 08:31:36;;;;;;;6.15;2.70;;;14.00;49.90;;;;;;5984453;29;20030;-70
2023/04/08 08:34:37;;;;;;;5.97;2.55;;;14.10;49.70;;;;;;5983466;29;20037;-68
2023/04/08 08:37:38;;;;;;;4.38;2.40;;;14.20;49.50;;;;;;6017299;29;20034;-71
2023/04/08 08:40:39;;;;;;;4.65;2.58;;;14.30;49.20;;;;;;6005981;29;20026;-69
2023/04/08 08:43:40;;;;;;;7.40;2.53;;;14.30;48.90;;;;;;6006649;29;20022;-70
2023/04/08 08:46:47;;;;;;;4.47;2.45;;;14.40;48.50;;;;;;5983583;29;20677;-70
2023/04/08 08:49:48;;;;;;;7.00;3.00;;;14.40;48.30;;;;;;5983151;29;20492;-68
2023/04/08 08:52:50;;;;;;;4.15;2.35;;;14.40;48.20;;;;;;6012861;29;20026;-70
2023/04/08 08:55:51;;;;;;;7.57;2.50;;;14.50;47.80;;;;;;5981958;29;20105;-69
2023/04/08 08:58:52;;;;;;;5.82;2.50;;;14.60;47.80;;;;;;5983095;29;20026;-69
2023/04/08 09:01:52;;;;;;;6.28;2.13;;;14.60;47.60;;;;;;5981700;29;20098;-69
2023/04/08 09:05:03;;;;;;;5.70;3.08;;;14.70;47.50;;;;;;5983141;29;20026;-70
2023/04/08 09:08:05;;;;;;;6.18;2.55;;;14.90;47.30;;;;;;5981400;29;20078;-69
2023/04/08 09:11:16;;;;;;;3.55;2.03;;;15.00;46.90;;;;;;5989183;29;20133;-70
2023/04/08 09:14:21;;;;;;;6.75;3.25;;;15.10;46.60;;;;;;6004371;29;20045;-69
2023/04/08 09:17:51;;;;;;;7.18;2.47;;;15.10;46.10;;;;;;6005874;29;20057;-69
2023/04/08 09:20:52;;;;;;;3.78;2.08;;;15.10;45.90;;;;;;5979745;29;20125;-70
2023/04/08 09:23:53;;;;;;;4.38;2.10;;;15.00;45.80;;;;;;5973268;29;20065;-70
2023/04/08 09:26:55;;;;;;;4.38;1.75;;;15.20;45.80;;;;;;5956476;29;20462;-70
2023/04/08 09:30:13;;;;;;;5.70;1.70;;;15.30;45.20;;;;;;5956220;29;20069;-70
2023/04/08 09:33:14;;;;;;;6.53;1.70;;;15.30;44.60;;;;;;5956545;29;20480;-69
2023/04/08 09:36:16;;;;;;;1.85;1.23;;;15.40;44.20;;;;;;5956698;29;20063;-70
2023/04/08 09:39:17;;;;;;;3.30;1.40;;;15.40;43.80;;;;;;5972761;29;20157;-70
2023/04/08 09:42:20;;;;;;;3.60;1.83;;;15.40;43.80;;;;;;5963261;29;20520;-69
2023/04/08 09:45:21;;;;;;;2.72;1.65;;;15.40;43.50;;;;;;5971024;29;20062;-69
2023/04/08 09:48:26;;;;;;;2.63;1.65;;;15.40;43.50;;;;;;5956036;29;20026;-69
2023/04/08 09:51:33;;;;;;;3.88;1.90;;;15.40;43.60;;;;;;5941023;29;20062;-71
2023/04/08 09:54:42;;;;;;;5.70;2.10;;;15.50;43.70;;;;;;5941072;29;20035;-69
2023/04/08 09:57:54;;;;;;;4.45;2.25;;;15.60;43.70;;;;;;5975161;29;20042;-68
2023/04/08 10:00:55;;;;;;;2.63;1.88;;;15.60;43.70;;;;;;5982313;29;20113;-69
2023/04/08 10:03:57;;;;;;;4.10;1.90;;;15.60;43.60;;;;;;5983677;29;20695;-69
2023/04/08 10:07:03;;;;;;;3.67;1.90;;;15.60;43.60;;;;;;5982151;29;20503;-68
2023/04/08 10:10:06;;;;;;;6.93;3.15;;;15.70;43.80;;;;;;5982717;29;20026;-68
2023/04/08 10:13:06;;;;;;;4.78;2.05;;;15.80;43.60;;;;;;5997732;29;20030;-68
2023/04/08 10:16:28;;;;;;;7.65;1.98;;;15.90;43.60;;;;;;6013425;29;20505;-70
2023/04/08 10:19:40;;;;;;;3.17;1.80;;;15.90;43.50;;;;;;5981792;29;20049;-68
2023/04/08 10:22:46;;;;;;;4.25;2.28;;;16.00;43.40;;;;;;5982046;29;20023;-68
2023/04/08 10:25:48;;;;;;;3.28;2.00;;;16.00;43.40;;;;;;5981517;29;20048;-69
2023/04/08 10:28:49;;;;;;;5.00;2.08;;;16.10;43.30;;;;;;5981516;29;20030;-69
2023/04/08 10:31:50;;;;;;;6.10;2.30;;;16.20;43.20;;;;;;6010591;29;20352;-69
2023/04/08 10:34:52;;;;;;;3.15;1.75;;;16.30;43.10;;;;;;5981387;29;20367;-69
2023/04/08 10:37:53;;;;;;;5.32;1.77;;;16.40;42.90;;;;;;6000700;29;20030;-68
2023/04/08 10:40:54;;;;;;;2.65;1.67;;;16.50;42.50;;;;;;6004019;29;20467;-69
2023/04/08 10:43:55;;;;;;;2.78;1.63;;;16.50;42.50;;;;;;6004018;29;20086;-69
2023/04/08 10:46:56;;;;;;;7.53;2.50;;;16.70;42.30;;;;;;6003870;29;20037;-69
2023/04/08 10:49:57;;;;;;;5.25;2.25;;;17.00;42.10;;;;;;6003756;29;20029;-69
2023/04/08 10:52:58;;;;;;;3.00;1.92;;;17.20;41.60;;;;;;6004345;29;20030;-69
2023/04/08 10:56:13;;;;;;;4.38;2.40;;;17.50;41.30;;;;;;6002417;29;20768;-70
2023/04/08 10:59:16;;;;;;;3.83;1.80;;;17.90;40.70;;;;;;6002379;29;20032;-67
2023/04/08 11:02:17;;;;;;;4.38;1.98;;;18.30;40.00;;;;;;6004247;29;20038;-68
2023/04/08 11:05:22;;;;;;;3.65;2.00;;;18.60;39.30;;;;;;6007073;29;20464;-69
2023/04/08 11:08:31;;;;;;;3.47;1.80;;;19.00;39.60;;;;;;6009181;29;20767;-68
2023/04/08 11:11:32;;;;;;;2.88;2.03;;;19.20;38.50;;;;;;5999110;29;20035;-69
2023/04/08 11:14:32;;;;;;;3.67;2.10;;;19.50;38.10;;;;;;5969569;29;20095;-69
2023/04/08 11:17:35;;;;;;;3.47;1.67;;;19.80;37.20;;;;;;5985388;29;20085;-69
2023/04/08 11:20:37;;;;;;;2.53;1.67;;;20.00;36.10;;;;;;5985382;29;20440;-70
2023/04/08 11:23:38;;;;;;;2.20;1.60;;;20.30;35.90;;;;;;5985101;29;20030;-69
2023/04/08 11:26:40;;;;;;;2.35;1.85;;;20.40;36.00;;;;;;6014322;29;20038;-69
2023/04/08 11:29:42;;;;;;;3.80;1.73;;;20.60;35.70;;;;;;5985096;29;20034;-67
2023/04/08 11:32:43;;;;;;;2.55;1.58;;;20.70;35.10;;;;;;6014636;29;20109;-70
2023/04/08 11:35:44;;;;;;;2.80;1.70;;;20.80;34.80;;;;;;5985879;29;20544;-69
2023/04/08 11:38:46;;;;;;;3.20;1.23;;;20.90;34.90;;;;;;5998177;29;20193;-70
2023/04/08 11:41:47;;;;;;;3.40;1.50;;;21.10;34.50;;;;;;6008442;29;20082;-70
2023/04/08 11:44:48;;;;;;;2.08;1.42;;;21.40;34.20;;;;;;5999678;29;20034;-70
2023/04/08 11:47:49;;;;;;;4.90;1.42;;;21.60;34.10;;;;;;5984877;29;20110;-70
2023/04/08 11:51:03;;;;;;;2.45;1.60;;;21.90;33.70;;;;;;6014479;29;20035;-69
2023/04/08 11:54:06;;;;;;;1.92;1.45;;;22.20;33.20;;;;;;6013907;29;20038;-69
2023/04/08 11:57:08;;;;;;;3.28;1.50;;;22.60;32.70;;;;;;5984880;29;20034;-69
2023/04/08 12:00:09;;;;;;;3.15;1.13;;;23.00;32.00;;;;;;5982858;29;20098;-71
2023/04/08 12:03:14;;;;;;;1.27;1.00;;;23.50;31.40;;;;;;6013637;29;20167;-69
2023/04/08 12:06:15;;;;;;;2.08;1.35;;;24.00;30.20;;;;;;6014257;29;20049;-69
2023/04/08 12:09:16;;;;;;;3.25;1.20;;;24.30;29.60;;;;;;5984390;29;20034;-69
2023/04/08 12:12:17;;;;;;;3.95;1.50;;;24.40;29.00;;;;;;5999987;29;20109;-69
2023/04/08 12:15:18;;;;;;;2.45;1.40;;;24.50;28.70;;;;;;5996041;29;20476;-70
2023/04/08 12:18:18;;;;;;;1.90;1.02;;;24.50;28.30;;;;;;5983690;29;20619;-70
2023/04/08 12:21:19;;;;;;;5.07;1.35;;;24.70;27.90;;;;;;5984394;29;20030;-70
2023/04/08 12:24:20;;;;;;;2.90;1.40;;;24.70;27.70;;;;;;5984260;29;20030;-69
2023/04/08 12:27:21;;;;;;;1.70;1.20;;;25.10;27.70;;;;;;6013634;29;20098;-69
2023/04/08 12:30:22;;;;;;;2.90;1.30;;;25.60;27.10;;;;;;5983958;29;20061;-69
2023/04/08 12:33:23;;;;;;;1.70;1.10;;;25.90;26.80;;;;;;5984352;29;20035;-69
2023/04/08 12:36:23;;;;;;;1.13;0.85;;;26.50;26.50;;;;;;6013251;29;20117;-69
2023/04/08 12:39:25;;;;;;;1.73;1.15;;;26.70;25.80;;;;;;6030899;29;20040;-70
2023/04/08 12:42:26;;;;;;;1.60;1.17;;;26.70;25.60;;;;;;6006606;29;20033;-70
2023/04/08 12:45:27;;;;;;;1.60;0.98;;;27.00;25.20;;;;;;6005046;29;20034;-69
2023/04/08 12:48:28;;;;;;;1.60;0.98;;;27.10;24.80;;;;;;5989409;29;20368;-70
2023/04/08 12:51:29;;;;;;;2.30;1.13;;;27.10;24.60;;;;;;6035688;29;20140;-69
2023/04/08 12:54:31;;;;;;;0.98;0.88;;;27.60;24.60;;;;;;6006018;29;20479;-70
2023/04/08 12:57:32;;;;;;;1.85;1.10;;;28.50;24.10;;;;;;6006636;29;20030;-69
2023/04/08 13:00:33;;;;;;;1.60;1.10;;;29.30;23.50;;;;;;6006566;29;20495;-69
2023/04/08 13:03:34;;;;;;;3.35;1.40;;;30.00;22.80;;;;;;6007108;29;20049;-69
2023/04/08 13:06:35;;;;;;;1.20;1.10;;;30.50;22.40;;;;;;6006686;29;20467;-68
2023/04/08 13:09:36;;;;;;;2.45;1.70;;;31.10;22.00;;;;;;6005859;29;20038;-69
2023/04/08 13:12:39;;;;;;;3.28;1.40;;;31.70;21.60;;;;;;5987689;29;20083;-68
2023/04/08 13:15:39;;;;;;;2.75;1.50;;;32.10;21.30;;;;;;6012384;29;20046;-69
2023/04/08 13:18:41;;;;;;;2.97;1.25;;;32.30;20.80;;;;;;5983305;29;20194;-68
2023/04/08 13:21:42;;;;;;;1.45;1.05;;;32.50;20.70;;;;;;5983196;29;20065;-69
2023/04/08 13:24:43;;;;;;;2.65;1.20;;;32.90;20.50;;;;;;6012298;29;20212;-71
2023/04/08 13:27:43;;;;;;;1.10;1.00;;;33.20;20.10;;;;;;5982636;29;20030;-69
2023/04/08 13:30:44;;;;;;;11.77;1.65;;;33.50;19.80;;;;;;5981675;29;20030;-69
2023/04/08 13:33:45;;;;;;;2.70;1.42;;;33.10;19.40;;;;;;5983069;29;20425;-70
2023/04/08 13:36:46;;;;;;;3.03;1.00;;;32.90;19.50;;;;;;6012309;29;20053;-70
2023/04/08 13:39:47;;;;;;;1.88;1.20;;;33.00;19.60;;;;;;6003667;29;20026;-68
2023/04/08 13:42:47;;;;;;;1.20;0.88;;;33.00;19.50;;;;;;6005463;29;20045;-70
2023/04/08 13:45:48;;;;;;;2.45;0.82;;;33.10;19.20;;;;;;5989641;29;20043;-69
2023/04/08 13:48:49;;;;;;;4.70;1.17;;;33.20;19.20;;;;;;5982118;29;20113;-69
2023/04/08 13:51:50;;;;;;;2.92;1.00;;;33.20;19.10;;;;;;5982487;29;20041;-68
2023/04/08 13:54:51;;;;;;;1.33;0.80;;;33.30;18.80;;;;;;5982455;29;20117;-69
2023/04/08 13:58:07;;;;;;;1.55;1.15;;;33.50;18.90;;;;;;5982995;29;20029;-69
2023/04/08 14:01:08;;;;;;;1.17;0.95;;;33.60;18.70;;;;;;6011086;29;20030;-70
2023/04/08 14:04:09;;;;;;;1.65;1.05;;;33.10;18.90;;;;;;6011635;29;20060;-70
2023/04/08 14:07:11;;;;;;;1.48;0.98;;;31.80;19.60;;;;;;5981792;29;20026;-70
2023/04/08 14:10:14;;;;;;;1.65;1.08;;;30.60;20.30;;;;;;5982274;29;20133;-70
2023/04/08 14:13:15;;;;;;;1.92;1.23;;;29.60;20.90;;;;;;5982336;29;20449;-69
2023/04/08 14:16:16;;;;;;;1.25;0.80;;;28.80;21.60;;;;;;5982094;29;20106;-69
2023/04/08 14:19:17;;;;;;;1.98;1.20;;;28.00;22.20;;;;;;5981444;29;20031;-68
2023/04/08 14:22:18;;;;;;;2.67;1.63;;;27.20;22.60;;;;;;5981713;29;20039;-68
2023/04/08 14:25:19;;;;;;;2.33;1.27;;;26.40;23.20;;;;;;6010682;29;20045;-68
2023/04/08 14:28:20;;;;;;;2.55;1.20;;;25.70;23.70;;;;;;5981912;29;20053;-69
2023/04/08 14:31:21;;;;;;;1.55;0.98;;;25.10;24.30;;;;;;5982215;29;20035;-68
2023/04/08 14:34:22;;;;;;;2.15;0.80;;;24.50;24.90;;;;;;5982109;29;20325;-68
2023/04/08 14:37:23;;;;;;;2.47;0.95;;;24.10;25.40;;;;;;5983509;29;20037;-69
2023/04/08 14:40:24;;;;;;;1.35;0.90;;;23.80;25.80;;;;;;6001949;29;20026;-68
2023/04/08 14:43:25;;;;;;;1.55;0.93;;;23.50;26.30;;;;;;6002410;29;20484;-70
2023/04/08 14:46:26;;;;;;;1.60;0.80;;;23.20;26.60;;;;;;5984002;29;20042;-69
2023/04/08 14:49:26;;;;;;;2.10;1.08;;;23.00;26.90;;;;;;6010199;29;20165;-69
2023/04/08 14:52:27;;;;;;;2.70;1.00;;;22.80;27.20;;;;;;6010767;29;20034;-68
2023/04/08 14:55:31;;;;;;;4.25;1.08;;;22.60;27.30;;;;;;5981002;29;20042;-69
2023/04/08 14:58:31;;;;;;;1.52;0.98;;;22.50;27.70;;;;;;5981123;29;20026;-69
2023/04/08 15:01:32;;;;;;;1.23;0.80;;;22.10;27.90;;;;;;5980778;29;20632;-68
2023/04/08 15:04:33;;;;;;;2.08;0.95;;;21.90;28.20;;;;;;5980837;29;20047;-68
2023/04/08 15:07:34;;;;;;;3.78;1.15;;;21.70;28.60;;;;;;5981021;29;20086;-69
2023/04/08 15:10:36;;;;;;;2.20;0.73;;;21.50;28.70;;;;;;5984338;29;20041;-69
2023/04/08 15:13:36;;;;;;;3.80;1.70;;;21.50;28.80;;;;;;6004160;29;20113;-69
2023/04/08 15:16:37;;;;;;;3.75;1.10;;;21.50;28.90;;;;;;6003821;29;20030;-69
2023/04/08 15:19:38;;;;;;;7.18;1.20;;;21.50;29.20;;;;;;5987392;29;20517;-69
2023/04/08 15:22:39;;;;;;;2.30;0.90;;;21.30;29.40;;;;;;5981690;29;20381;-68
2023/04/08 15:25:40;;;;;;;1.67;1.13;;;21.30;29.50;;;;;;5981333;29;20634;-69
2023/04/08 15:28:41;;;;;;;2.88;1.00;;;21.20;29.70;;;;;;6010677;29;20135;-70
2023/04/08 15:31:41;;;;;;;2.63;1.02;;;21.10;29.80;;;;;;5981519;29;20324;-68
2023/04/08 15:34:42;;;;;;;1.70;0.75;;;21.10;29.90;;;;;;5981532;29;20027;-70
2023/04/08 15:37:43;;;;;;;2.85;0.93;;;21.10;29.90;;;;;;5984045;29;20085;-67
2023/04/08 15:40:44;;;;;;;2.70;0.88;;;21.20;30.00;;;;;;6003077;29;20417;-67
2023/04/08 15:43:45;;;;;;;1.88;1.02;;;21.10;29.90;;;;;;6032242;29;20100;-68
2023/04/08 15:46:46;;;;;;;3.15;0.73;;;21.20;30.00;;;;;;6009597;29;20965;-70
2023/04/08 15:49:47;;;;;;;1.45;1.00;;;21.20;30.00;;;;;;5979953;29;20048;-68